Time;durP1;ratioP1;P1;durP2;ratioP2;P2;SDS_P1;SDS_P2;PMS_P1;PMS_P2;Temp;Humidity;BMP_temperature;BMP_pressure;BME280_temperature;BME280_humidity;BME280_pressure;Samples;Min_cycle;Max_cycle;Signal;HPM_P1;HPM_P2
2023/06/17 00:00:18;;;;;;;6.57;3.35;;;;;;;18.93;61.40;101628.25;4970225;28;20168;-66
2023/06/17 00:02:46;;;;;;;6.60;3.53;;;;;;;18.87;62.82;101620.16;4964651;28;20576;-66
2023/06/17 00:05:12;;;;;;;6.68;3.65;;;;;;;18.78;62.97;101617.56;4968650;28;20601;-68
2023/06/17 00:07:39;;;;;;;4.18;3.10;;;;;;;18.73;63.59;101624.41;4959031;28;20138;-69
2023/06/17 00:10:06;;;;;;;4.90;3.50;;;;;;;18.67;62.91;101615.34;4967445;28;20522;-67
2023/06/17 00:12:33;;;;;;;6.53;3.47;;;;;;;18.65;64.03;101621.84;4962044;28;20054;-68
2023/06/17 00:15:02;;;;;;;4.18;3.20;;;;;;;18.58;64.82;101613.75;4967035;28;20125;-67
2023/06/17 00:17:30;;;;;;;4.82;3.22;;;;;;;18.53;65.06;101613.47;4967279;28;20913;-67
2023/06/17 00:19:58;;;;;;;4.65;3.15;;;;;;;18.46;64.43;101610.69;4966441;28;20051;-68
2023/06/17 00:22:25;;;;;;;5.07;3.13;;;;;;;18.40;65.05;101613.25;4961590;28;20758;-67
2023/06/17 00:24:51;;;;;;;4.90;3.40;;;;;;;18.34;65.27;101612.13;4961002;28;20086;-68
2023/06/17 00:27:18;;;;;;;6.32;3.97;;;;;;;18.28;65.45;101611.00;4968338;28;20081;-67
2023/06/17 00:29:45;;;;;;;6.32;4.00;;;;;;;18.24;65.19;101611.56;4967170;28;20088;-68
2023/06/17 00:32:11;;;;;;;6.50;4.10;;;;;;;18.16;65.21;101602.63;4966770;28;20047;-67
2023/06/17 00:34:37;;;;;;;6.97;3.50;;;;;;;18.20;65.16;101604.94;4947441;28;20061;-67
2023/06/17 00:37:04;;;;;;;5.65;4.13;;;;;;;18.15;66.41;101600.16;4965093;28;20089;-67
2023/06/17 00:39:31;;;;;;;6.93;3.47;;;;;;;18.09;64.93;101592.91;4966435;28;20080;-67
2023/06/17 00:41:57;;;;;;;5.43;3.85;;;;;;;18.14;65.86;101603.81;4958975;28;20498;-67
2023/06/17 00:44:24;;;;;;;5.75;3.90;;;;;;;18.08;66.92;101594.75;4965027;28;20055;-67
2023/06/17 00:46:53;;;;;;;6.20;4.18;;;;;;;18.06;66.71;101596.75;4937862;28;20141;-68
2023/06/17 00:49:29;;;;;;;6.53;3.92;;;;;;;18.05;65.91;101594.25;4966940;28;20059;-69
2023/06/17 00:51:59;;;;;;;6.13;3.83;;;;;;;17.99;67.54;101593.13;4963443;28;20078;-67
2023/06/17 00:54:43;;;;;;;5.40;3.60;;;;;;;17.94;67.20;101592.84;4967348;28;20109;-68
2023/06/17 00:57:13;;;;;;;6.10;4.00;;;;;;;17.89;68.35;101589.91;4968826;28;20061;-67
2023/06/17 00:59:42;;;;;;;5.15;3.80;;;;;;;17.84;68.46;101592.22;4955097;28;20058;-68
2023/06/17 01:02:11;;;;;;;5.97;4.05;;;;;;;17.75;68.94;101584.31;4962674;28;20050;-67
2023/06/17 01:04:42;;;;;;;6.15;4.35;;;;;;;17.71;69.61;101587.50;4960115;28;20053;-67
2023/06/17 01:07:22;;;;;;;6.65;4.30;;;;;;;17.67;70.90;101591.50;4965277;28;20538;-67
2023/06/17 01:10:02;;;;;;;5.68;3.90;;;;;;;17.61;70.22;101594.84;4961938;28;20082;-67
2023/06/17 01:12:29;;;;;;;7.00;4.40;;;;;;;17.59;70.61;101595.84;4961698;28;20675;-68
2023/06/17 01:14:57;;;;;;;4.57;3.83;;;;;;;17.58;70.06;101588.03;4955588;28;20043;-67
2023/06/17 01:17:26;;;;;;;5.90;3.92;;;;;;;17.53;71.30;101591.22;4967628;28;20050;-67
2023/06/17 01:19:54;;;;;;;8.65;4.35;;;;;;;17.50;72.05;101590.75;4966356;28;20149;-68
2023/06/17 01:22:21;;;;;;;7.03;3.90;;;;;;;17.50;70.51;101588.09;4961658;28;20101;-67
2023/06/17 01:24:49;;;;;;;7.80;5.57;;;;;;;17.48;71.29;101593.56;4968574;28;20479;-67
2023/06/17 01:27:16;;;;;;;6.93;5.70;;;;;;;17.46;71.93;101586.78;4956532;28;20539;-68
2023/06/17 01:29:48;;;;;;;6.07;4.43;;;;;;;17.44;71.43;101583.47;4961070;28;20046;-67
2023/06/17 01:32:16;;;;;;;7.18;3.85;;;;;;;17.43;71.25;101582.66;4958629;28;20054;-67
2023/06/17 01:34:59;;;;;;;4.75;4.00;;;;;;;17.43;71.86;101581.84;4968757;28;20053;-68
2023/06/17 01:37:34;;;;;;;5.10;4.10;;;;;;;17.32;72.92;101575.91;4953215;28;20484;-69
2023/06/17 01:40:04;;;;;;;7.07;4.20;;;;;;;17.30;73.02;101583.19;4965708;28;20173;-68
2023/06/17 01:42:35;;;;;;;5.95;4.75;;;;;;;17.26;74.05;101581.06;4957794;28;20134;-68
2023/06/17 01:45:05;;;;;;;5.68;4.60;;;;;;;17.22;73.13;101575.28;4955169;28;20055;-67
2023/06/17 01:47:32;;;;;;;7.47;4.55;;;;;;;17.13;74.32;101576.31;4963590;28;20054;-68
2023/06/17 01:50:00;;;;;;;6.07;4.53;;;;;;;17.08;75.78;101574.19;4961274;28;20709;-69
2023/06/17 01:52:27;;;;;;;5.65;4.43;;;;;;;17.06;75.55;101583.31;4966485;28;20539;-69
2023/06/17 01:54:54;;;;;;;7.25;4.32;;;;;;;17.03;74.93;101578.34;4958814;28;20058;-68
2023/06/17 01:57:20;;;;;;;6.40;4.15;;;;;;;17.03;74.41;101584.44;4960813;28;20516;-67
2023/06/17 01:59:47;;;;;;;5.88;4.70;;;;;;;17.00;74.68;101590.09;4966516;28;20545;-68
2023/06/17 02:02:14;;;;;;;6.85;4.55;;;;;;;16.99;75.16;101584.00;4959404;28;20046;-68
2023/06/17 02:04:41;;;;;;;7.47;4.97;;;;;;;17.02;75.08;101592.59;4965275;28;20137;-68
2023/06/17 02:07:10;;;;;;;6.35;4.97;;;;;;;16.96;75.99;101586.97;4960511;28;20444;-67
2023/06/17 02:09:37;;;;;;;6.22;4.53;;;;;;;16.92;75.97;101588.31;4957167;28;20518;-67
2023/06/17 02:12:05;;;;;;;5.57;4.53;;;;;;;16.88;76.28;101594.13;4951452;28;20050;-68
2023/06/17 02:14:33;;;;;;;6.72;4.68;;;;;;;16.78;77.33;101581.84;4965220;28;20141;-68
2023/06/17 02:17:00;;;;;;;6.68;4.43;;;;;;;16.74;77.50;101585.84;4964118;28;20495;-67
2023/06/17 02:19:28;;;;;;;7.18;4.90;;;;;;;16.71;77.03;101580.84;4960279;28;20548;-67
2023/06/17 02:21:55;;;;;;;5.63;4.45;;;;;;;16.66;78.44;101579.72;4964712;28;20054;-67
2023/06/17 02:24:22;;;;;;;6.93;4.70;;;;;;;16.62;78.14;101579.22;4956231;28;20085;-68
2023/06/17 02:26:49;;;;;;;9.57;4.63;;;;;;;16.58;77.74;101575.25;4962898;28;20051;-67
2023/06/17 02:29:16;;;;;;;8.35;4.57;;;;;;;16.59;77.75;101575.09;4959929;28;20646;-67
2023/06/17 02:31:43;;;;;;;9.20;5.10;;;;;;;16.55;78.70;101573.75;4964689;28;20050;-68
2023/06/17 02:34:09;;;;;;;7.10;4.80;;;;;;;16.51;78.11;101568.97;4963992;28;20054;-67
2023/06/17 02:36:39;;;;;;;6.18;4.50;;;;;;;16.47;78.97;101571.13;4954923;28;20499;-68
2023/06/17 02:39:06;;;;;;;7.13;5.10;;;;;;;16.43;80.01;101575.09;4954021;28;20074;-67
2023/06/17 02:41:32;;;;;;;6.43;4.95;;;;;;;16.36;80.98;101561.69;4959834;28;20053;-68
2023/06/17 02:43:59;;;;;;;6.60;4.50;;;;;;;16.31;80.56;101564.03;4960728;28;20112;-68
2023/06/17 02:46:26;;;;;;;6.53;4.68;;;;;;;16.29;79.57;101566.03;4965979;28;20050;-67
2023/06/17 02:48:54;;;;;;;9.05;5.10;;;;;;;16.28;80.28;101574.13;4963429;28;20047;-68
2023/06/17 02:51:22;;;;;;;7.85;5.28;;;;;;;16.24;79.94;101567.50;4956666;28;21390;-67
2023/06/17 02:53:48;;;;;;;8.32;4.78;;;;;;;16.16;81.29;101569.16;4951071;28;20060;-67
2023/06/17 02:56:15;;;;;;;7.13;5.03;;;;;;;16.17;83.12;101569.97;4944160;28;20139;-68
2023/06/17 02:58:43;;;;;;;6.70;4.78;;;;;;;16.14;81.65;101562.38;4957902;28;20174;-67
2023/06/17 03:01:11;;;;;;;6.25;4.63;;;;;;;16.14;81.78;101563.19;4961608;28;20728;-67
2023/06/17 03:03:37;;;;;;;7.13;4.47;;;;;;;16.14;82.36;101563.19;4965854;28;20669;-68
2023/06/17 03:06:09;;;;;;;7.50;4.80;;;;;;;16.13;84.02;101564.19;4952331;28;20546;-68
2023/06/17 03:08:38;;;;;;;5.93;4.85;;;;;;;16.08;84.77;101565.69;4959066;28;20043;-68
2023/06/17 03:11:05;;;;;;;7.57;5.05;;;;;;;16.06;82.77;101565.03;4957991;28;20055;-68
2023/06/17 03:13:32;;;;;;;8.27;5.22;;;;;;;16.10;82.98;101569.81;4963159;28;20076;-67
2023/06/17 03:16:01;;;;;;;8.48;5.22;;;;;;;16.07;84.51;101569.31;4946505;28;20153;-68
2023/06/17 03:18:28;;;;;;;7.47;5.13;;;;;;;16.02;84.40;101560.03;4965571;28;20121;-67
2023/06/17 03:20:54;;;;;;;7.63;5.47;;;;;;;16.01;84.61;101563.69;4959158;28;21019;-67
2023/06/17 03:23:22;;;;;;;11.90;5.72;;;;;;;15.99;84.60;101568.31;4954576;28;20520;-68
2023/06/17 03:25:52;;;;;;;8.45;5.53;;;;;;;15.96;84.41;101558.06;4964039;28;20078;-66
2023/06/17 03:28:19;;;;;;;8.38;6.80;;;;;;;15.89;85.93;101558.88;4960213;28;20133;-67
2023/06/17 03:30:46;;;;;;;8.35;6.68;;;;;;;15.90;84.73;101565.84;4946582;28;20082;-67
2023/06/17 03:33:13;;;;;;;9.50;6.93;;;;;;;15.90;86.93;101568.47;4953176;28;20055;-67
2023/06/17 03:35:40;;;;;;;7.35;5.78;;;;;;;15.86;87.43;101567.97;4965590;28;20138;-68
2023/06/17 03:38:08;;;;;;;8.45;6.30;;;;;;;15.86;87.72;101567.13;4959705;28;20042;-68
2023/06/17 03:40:34;;;;;;;7.80;5.78;;;;;;;15.86;86.29;101557.38;4943574;28;20069;-67
2023/06/17 03:43:01;;;;;;;7.45;6.00;;;;;;;15.82;86.59;101553.41;4963970;28;20097;-67
2023/06/17 03:45:28;;;;;;;8.43;6.22;;;;;;;15.82;87.17;101550.78;4955390;28;20272;-68
2023/06/17 03:47:55;;;;;;;8.65;5.85;;;;;;;15.82;85.45;101548.94;4959806;28;20054;-67
2023/06/17 03:50:21;;;;;;;8.32;5.70;;;;;;;15.81;87.49;101549.09;4957660;28;20086;-67
2023/06/17 03:52:48;;;;;;;8.70;6.43;;;;;;;15.77;87.88;101553.88;4963307;28;20790;-67
2023/06/17 03:55:16;;;;;;;9.32;6.57;;;;;;;15.77;88.49;101551.25;4964677;28;20109;-66
2023/06/17 03:57:43;;;;;;;7.63;6.03;;;;;;;15.74;89.58;101548.94;4956855;28;20078;-67
2023/06/17 04:00:11;;;;;;;6.70;5.32;;;;;;;15.77;86.72;101553.06;4964388;28;20042;-68
2023/06/17 04:02:37;;;;;;;7.72;5.72;;;;;;;15.81;86.96;101549.09;4955798;28;20078;-67
2023/06/17 04:05:06;;;;;;;8.75;6.30;;;;;;;15.79;87.95;101549.25;4966115;28;20566;-68
2023/06/17 04:07:33;;;;;;;11.40;6.32;;;;;;;15.77;89.31;101542.50;4953214;28;20109;-68
2023/06/17 04:09:59;;;;;;;10.85;6.90;;;;;;;15.77;87.83;101543.31;4969827;28;20069;-67
2023/06/17 04:12:33;;;;;;;8.15;6.13;;;;;;;15.76;88.88;101533.72;4939788;28;20138;-66
2023/06/17 04:15:00;;;;;;;8.88;6.13;;;;;;;15.76;88.45;101536.38;4952439;28;20054;-67
2023/06/17 04:17:26;;;;;;;8.32;6.32;;;;;;;15.77;89.52;101542.50;4963189;28;20491;-67
2023/06/17 04:19:56;;;;;;;8.70;6.05;;;;;;;15.77;88.65;101550.41;4956589;28;20054;-66
2023/06/17 04:22:22;;;;;;;9.18;6.45;;;;;;;15.76;90.08;101554.06;4968052;28;20431;-67
2023/06/17 04:24:52;;;;;;;8.48;6.93;;;;;;;15.77;90.60;101545.13;4961390;28;20133;-66
2023/06/17 04:27:18;;;;;;;10.15;7.18;;;;;;;15.80;89.87;101548.28;4955237;28;20061;-67
2023/06/17 04:29:45;;;;;;;12.20;6.68;;;;;;;15.80;90.32;101550.09;4957899;28;20164;-69
2023/06/17 04:32:15;;;;;;;8.90;6.07;;;;;;;15.82;91.94;101559.53;4966623;28;20524;-67
2023/06/17 04:34:47;;;;;;;13.02;6.15;;;;;;;15.84;88.96;101547.94;4965757;28;20499;-68
2023/06/17 04:37:14;;;;;;;10.25;6.68;;;;;;;15.89;90.34;101553.59;4961233;28;20101;-68
2023/06/17 04:39:41;;;;;;;8.80;6.72;;;;;;;15.91;89.14;101548.94;4950943;28;20043;-68
2023/06/17 04:42:12;;;;;;;8.93;6.97;;;;;;;15.98;92.09;101545.50;4958486;28;20046;-68
2023/06/17 04:44:39;;;;;;;9.05;7.07;;;;;;;16.05;90.13;101547.47;4971177;28;20525;-68
2023/06/17 04:47:10;;;;;;;10.95;6.82;;;;;;;16.07;91.84;101548.94;4963126;28;20538;-68
2023/06/17 04:49:41;;;;;;;10.98;7.60;;;;;;;16.11;91.30;101550.31;4966990;28;20046;-68
2023/06/17 04:52:11;;;;;;;9.77;7.95;;;;;;;16.15;94.24;101556.06;4960976;28;20055;-68
2023/06/17 04:54:38;;;;;;;8.98;7.75;;;;;;;16.17;94.21;101557.59;4960530;28;20142;-68
2023/06/17 04:57:05;;;;;;;10.30;7.68;;;;;;;16.19;94.49;101552.09;4966748;28;20094;-68
2023/06/17 04:59:32;;;;;;;12.30;7.87;;;;;;;16.26;92.70;101550.44;4963420;28;20086;-68
2023/06/17 05:01:59;;;;;;;11.55;8.65;;;;;;;16.34;94.42;101549.63;4964928;28;20138;-68
2023/06/17 05:04:26;;;;;;;15.43;9.07;;;;;;;16.38;94.30;101549.13;4955774;28;20078;-68
2023/06/17 05:06:52;;;;;;;11.55;8.88;;;;;;;16.45;94.97;101537.88;4960391;28;20057;-68
2023/06/17 05:09:19;;;;;;;10.55;8.65;;;;;;;16.56;94.44;101550.75;4968421;28;20486;-67
2023/06/17 05:11:45;;;;;;;14.48;9.98;;;;;;;16.60;95.59;101555.56;4959395;28;20078;-67
2023/06/17 05:14:12;;;;;;;15.75;9.55;;;;;;;16.65;97.12;101549.75;4965169;28;20161;-67
2023/06/17 05:16:38;;;;;;;14.65;9.85;;;;;;;16.76;96.01;101553.88;4958807;28;20582;-68
2023/06/17 05:19:05;;;;;;;13.48;10.18;;;;;;;16.84;94.88;101559.19;4964784;28;20046;-68
2023/06/17 05:21:32;;;;;;;11.82;9.75;;;;;;;16.93;94.92;101560.78;4959209;28;20054;-67
2023/06/17 05:23:58;;;;;;;12.93;9.65;;;;;;;16.97;94.26;101563.94;4981402;28;20089;-67
2023/06/17 05:26:28;;;;;;;14.45;10.35;;;;;;;17.05;96.82;101568.38;4962768;28;20057;-68
2023/06/17 05:28:55;;;;;;;13.75;10.77;;;;;;;17.10;96.08;101568.72;4963991;28;20133;-65
2023/06/17 05:31:21;;;;;;;12.95;11.07;;;;;;;17.16;99.28;101563.53;4970781;28;20065;-66
2023/06/17 05:33:48;;;;;;;12.55;9.75;;;;;;;17.23;98.09;101570.81;4960080;28;20128;-67
2023/06/17 05:36:15;;;;;;;13.98;10.63;;;;;;;17.31;100.00;101565.50;4965603;28;20062;-67
2023/06/17 05:38:41;;;;;;;14.30;9.48;;;;;;;17.38;100.00;101566.44;4945601;28;20051;-67
2023/06/17 05:41:07;;;;;;;13.70;10.25;;;;;;;17.44;100.00;101571.03;4962583;28;20503;-67
2023/06/17 05:43:34;;;;;;;27.40;10.00;;;;;;;17.49;100.00;101566.06;4965984;28;20130;-67
2023/06/17 05:46:01;;;;;;;17.40;9.95;;;;;;;17.55;100.00;101565.34;4959386;28;20132;-67
2023/06/17 05:48:27;;;;;;;14.70;10.95;;;;;;;17.61;100.00;101555.06;4959953;28;20042;-68
2023/06/17 05:50:54;;;;;;;14.90;10.35;;;;;;;17.63;100.00;101556.53;4964959;28;20085;-67
2023/06/17 05:53:20;;;;;;;14.80;10.07;;;;;;;17.69;100.00;101555.00;4975354;28;20571;-67
2023/06/17 05:55:55;;;;;;;12.52;9.65;;;;;;;17.78;100.00;101562.72;4971055;28;20047;-70
2023/06/17 05:58:23;;;;;;;12.30;9.48;;;;;;;17.85;100.00;101560.22;4956955;28;20104;-68
2023/06/17 06:00:50;;;;;;;11.25;9.32;;;;;;;17.84;100.00;101552.44;4967570;28;20054;-67
2023/06/17 06:03:16;;;;;;;10.68;8.85;;;;;;;17.91;98.55;101562.16;4959976;28;20085;-68
2023/06/17 06:05:43;;;;;;;11.75;8.32;;;;;;;17.93;95.50;101560.16;4965894;28;20088;-67
2023/06/17 06:08:10;;;;;;;10.45;8.88;;;;;;;18.03;94.95;101559.09;4960627;28;20054;-66
2023/06/17 06:10:36;;;;;;;10.07;7.85;;;;;;;18.10;94.01;101560.88;4968805;28;20566;-67
2023/06/17 06:13:03;;;;;;;9.98;8.20;;;;;;;18.17;93.41;101553.03;4959523;28;20101;-67
2023/06/17 06:15:30;;;;;;;11.93;7.68;;;;;;;18.26;92.53;101562.56;4941039;28;20420;-68
2023/06/17 06:17:56;;;;;;;11.00;7.93;;;;;;;18.30;91.57;101553.22;4964725;28;20046;-68
2023/06/17 06:20:23;;;;;;;13.57;7.72;;;;;;;18.33;88.00;101562.69;4962127;28;20440;-68
2023/06/17 06:22:49;;;;;;;9.23;7.75;;;;;;;18.36;89.66;101557.00;4967978;28;20066;-68
2023/06/17 06:25:16;;;;;;;9.63;7.35;;;;;;;18.40;87.98;101560.94;4959738;28;20043;-70
2023/06/17 06:27:42;;;;;;;10.23;7.22;;;;;;;18.47;87.24;101561.88;4943610;28;20054;-68
2023/06/17 06:30:09;;;;;;;12.48;7.25;;;;;;;18.50;81.59;101555.38;4955334;28;20913;-68
2023/06/17 06:32:36;;;;;;;7.10;6.07;;;;;;;18.55;83.91;101559.16;4961971;28;20055;-67
2023/06/17 06:35:03;;;;;;;8.80;6.07;;;;;;;18.61;81.93;101562.09;4967025;28;20476;-67
2023/06/17 06:37:29;;;;;;;8.38;5.93;;;;;;;18.65;80.81;101563.38;4941738;28;20125;-67
2023/06/17 06:39:56;;;;;;;10.38;6.13;;;;;;;18.68;79.25;101549.72;4971366;28;20051;-68
2023/06/17 06:42:22;;;;;;;7.47;5.45;;;;;;;18.73;74.89;101558.78;4954811;28;20415;-67
2023/06/17 06:44:49;;;;;;;7.35;5.60;;;;;;;18.78;74.33;101559.09;4962929;28;20055;-68
2023/06/17 06:47:16;;;;;;;7.80;5.60;;;;;;;18.84;72.03;101567.38;4957059;28;20058;-67
2023/06/17 06:49:42;;;;;;;7.78;5.03;;;;;;;18.83;68.42;101561.22;4964814;28;20355;-68
2023/06/17 06:52:09;;;;;;;6.10;5.07;;;;;;;18.89;69.53;101560.47;4964766;28;20051;-68
2023/06/17 06:54:35;;;;;;;7.78;5.28;;;;;;;18.96;71.04;101566.72;4944379;28;20050;-68
2023/06/17 06:57:02;;;;;;;6.88;4.63;;;;;;;19.02;64.67;101564.34;4954549;28;20109;-68
2023/06/17 06:59:28;;;;;;;5.88;4.05;;;;;;;19.08;59.87;101560.94;4943251;28;20109;-68
2023/06/17 07:01:55;;;;;;;7.07;4.40;;;;;;;19.12;58.29;101559.56;4964011;28;20109;-68
2023/06/17 07:04:22;;;;;;;8.13;4.35;;;;;;;19.18;59.41;101561.47;4957736;28;20109;-68
2023/06/17 07:06:48;;;;;;;6.28;4.43;;;;;;;19.24;59.98;101559.91;4963734;28;20570;-68
2023/06/17 07:09:15;;;;;;;6.07;4.15;;;;;;;19.25;59.23;101565.06;4961581;28;20081;-69
2023/06/17 07:11:41;;;;;;;6.75;4.20;;;;;;;19.30;59.38;101564.50;4953303;28;20066;-68
2023/06/17 07:14:08;;;;;;;6.28;3.83;;;;;;;19.36;59.75;101561.91;4966495;28;20606;-68
2023/06/17 07:16:34;;;;;;;6.78;4.38;;;;;;;19.42;57.96;101562.19;4957040;28;20733;-68
2023/06/17 07:19:01;;;;;;;5.57;3.58;;;;;;;19.48;58.69;101559.63;4964676;28;20074;-68
2023/06/17 07:21:27;;;;;;;8.85;4.85;;;;;;;19.58;57.27;101559.28;4941424;28;20086;-68
2023/06/17 07:23:54;;;;;;;9.27;4.05;;;;;;;19.62;55.80;101557.06;4962826;28;20077;-69
2023/06/17 07:26:21;;;;;;;7.13;3.63;;;;;;;19.71;55.65;101553.28;4959934;28;20059;-68
2023/06/17 07:28:47;;;;;;;6.75;3.67;;;;;;;19.76;54.63;101558.91;4961864;28;20150;-68
2023/06/17 07:31:14;;;;;;;7.97;4.05;;;;;;;19.87;54.03;101563.72;4963696;28;20105;-68
2023/06/17 07:33:40;;;;;;;5.75;3.65;;;;;;;19.94;54.05;101558.47;4956652;28;20046;-68
2023/06/17 07:36:07;;;;;;;6.10;3.92;;;;;;;19.96;54.86;101559.09;4962223;28;20471;-68
2023/06/17 07:38:33;;;;;;;4.93;3.58;;;;;;;20.00;55.45;101549.72;4952784;28;20731;-69
2023/06/17 07:41:00;;;;;;;5.97;3.75;;;;;;;20.08;53.26;101559.41;4963167;28;20475;-68
2023/06/17 07:43:27;;;;;;;7.60;3.75;;;;;;;20.12;53.15;101558.84;4965404;28;20086;-68
2023/06/17 07:45:54;;;;;;;4.75;3.80;;;;;;;20.19;52.72;101558.91;4965295;28;20059;-67
2023/06/17 07:48:20;;;;;;;7.43;4.00;;;;;;;20.24;52.60;101545.81;4969160;28;20046;-68
2023/06/17 07:50:47;;;;;;;5.35;3.92;;;;;;;20.29;52.80;101543.41;4940196;28;20146;-68
2023/06/17 07:53:13;;;;;;;5.72;4.25;;;;;;;20.36;51.94;101548.78;4963233;28;20055;-68
2023/06/17 07:55:40;;;;;;;11.75;4.35;;;;;;;20.43;52.14;101549.66;4963650;28;20101;-69
2023/06/17 07:58:06;;;;;;;6.75;4.20;;;;;;;20.49;52.11;101548.88;4966749;28;20138;-67
2023/06/17 08:00:33;;;;;;;6.70;3.75;;;;;;;20.53;52.21;101544.81;4970854;28;20082;-71
2023/06/17 08:03:00;;;;;;;7.68;3.92;;;;;;;20.62;52.85;101544.69;4945703;28;20058;-67
2023/06/17 08:05:26;;;;;;;9.40;4.03;;;;;;;20.67;52.87;101545.75;4964821;28;20559;-70
2023/06/17 08:07:53;;;;;;;5.28;3.88;;;;;;;20.75;51.78;101544.75;4957858;28;20141;-69
2023/06/17 08:10:19;;;;;;;6.60;4.13;;;;;;;20.85;51.88;101544.41;4969482;28;20114;-69
2023/06/17 08:12:47;;;;;;;11.18;4.82;;;;;;;20.90;50.57;101542.00;4967807;28;20070;-69
2023/06/17 08:15:13;;;;;;;6.15;3.95;;;;;;;20.95;50.59;101539.53;4965919;28;20051;-68
2023/06/17 08:17:40;;;;;;;6.00;3.92;;;;;;;21.02;50.44;101540.41;4971520;28;20153;-68
2023/06/17 08:20:09;;;;;;;7.18;4.32;;;;;;;21.12;51.37;101535.50;4961033;28;20046;-68
2023/06/17 08:22:36;;;;;;;5.90;4.07;;;;;;;21.24;50.57;101543.75;4963332;28;20059;-67
2023/06/17 08:25:03;;;;;;;8.18;4.30;;;;;;;21.38;49.38;101541.16;4962076;28;20054;-67
2023/06/17 08:27:29;;;;;;;5.47;4.05;;;;;;;21.53;49.62;101536.50;4967431;28;20133;-68
2023/06/17 08:29:58;;;;;;;9.82;4.20;;;;;;;21.73;48.35;101537.34;4972492;28;20044;-68
2023/06/17 08:32:25;;;;;;;6.20;4.80;;;;;;;22.02;47.00;101537.19;4963611;28;20056;-68
2023/06/17 08:34:51;;;;;;;6.93;4.18;;;;;;;22.37;47.07;101531.66;4966567;28;20499;-68
2023/06/17 08:37:18;;;;;;;5.10;3.88;;;;;;;22.71;44.86;101528.69;4963443;28;20096;-68
2023/06/17 08:39:44;;;;;;;6.97;4.00;;;;;;;23.18;45.51;101527.75;4967924;28;20132;-70
2023/06/17 08:42:11;;;;;;;8.75;3.92;;;;;;;23.62;43.77;101529.56;4962037;28;20054;-68
2023/06/17 08:44:41;;;;;;;4.70;3.63;;;;;;;24.07;42.61;101520.59;4968972;28;20046;-68
2023/06/17 08:47:13;;;;;;;6.00;4.00;;;;;;;24.50;41.48;101522.44;4960525;28;20054;-68
2023/06/17 08:49:42;;;;;;;6.88;4.28;;;;;;;24.76;40.19;101524.09;4955791;28;20475;-68
2023/06/17 08:52:11;;;;;;;7.63;3.92;;;;;;;25.23;41.68;101526.22;4967768;28;20097;-68
2023/06/17 08:54:40;;;;;;;11.40;3.80;;;;;;;25.48;40.50;101518.00;4961045;28;20051;-68
2023/06/17 08:57:12;;;;;;;5.63;4.03;;;;;;;25.85;40.66;101516.00;4967566;28;20745;-68
2023/06/17 08:59:40;;;;;;;6.80;3.80;;;;;;;26.20;38.56;101522.47;4962213;28;20097;-68
2023/06/17 09:02:07;;;;;;;5.63;4.13;;;;;;;26.41;38.11;101518.38;4968120;28;20129;-68
2023/06/17 09:04:34;;;;;;;6.17;3.57;;;;;;;26.34;35.77;101515.81;4966631;28;20050;-69
2023/06/17 09:07:00;;;;;;;6.28;3.40;;;;;;;26.29;37.11;101512.22;4962822;28;20047;-69
2023/06/17 09:09:27;;;;;;;10.00;4.10;;;;;;;26.54;35.72;101506.53;4963862;28;20116;-69
2023/06/17 09:11:54;;;;;;;7.13;3.55;;;;;;;26.77;36.46;101511.09;4951740;28;20047;-70
2023/06/17 09:14:27;;;;;;;8.95;3.80;;;;;;;27.10;36.70;101506.91;4968258;28;20090;-69
2023/06/17 09:16:53;;;;;;;6.90;3.65;;;;;;;27.54;36.25;101507.16;4944127;28;20050;-69
2023/06/17 09:19:22;;;;;;;5.38;3.85;;;;;;;27.85;35.29;101510.38;4968690;28;20051;-69
2023/06/17 09:21:48;;;;;;;5.30;3.55;;;;;;;28.10;34.91;101516.19;4963134;28;20480;-70
2023/06/17 09:24:15;;;;;;;7.65;3.78;;;;;;;28.03;33.89;101512.03;4957213;28;20069;-69
2023/06/17 09:26:43;;;;;;;6.45;3.85;;;;;;;28.00;34.65;101506.06;4962713;28;20054;-71
2023/06/17 09:29:13;;;;;;;5.45;3.67;;;;;;;28.19;34.19;101517.41;4944144;28;20061;-69
2023/06/17 09:31:50;;;;;;;5.25;4.07;;;;;;;28.47;35.00;101507.53;4940485;28;20133;-70
2023/06/17 09:34:18;;;;;;;6.63;3.83;;;;;;;28.50;34.43;101519.69;4964172;28;20097;-69
2023/06/17 09:36:46;;;;;;;7.07;3.92;;;;;;;28.47;33.07;101507.53;4961995;28;20047;-69
2023/06/17 09:39:13;;;;;;;4.95;3.72;;;;;;;28.55;33.43;101511.72;4970853;28;20055;-69
2023/06/17 09:41:41;;;;;;;6.50;3.67;;;;;;;28.84;33.66;101509.66;4956846;28;20146;-69
2023/06/17 09:44:08;;;;;;;;;;;;;;;29.06;33.04;101515.00;4970655;28;20046;-69
2023/06/17 09:46:36;;;;;;;6.75;3.95;;;;;;;29.21;33.07;101511.69;4966311;28;19974;-69
2023/06/17 09:49:07;;;;;;;8.50;3.75;;;;;;;29.28;32.76;101509.59;4975086;28;20061;-69
2023/06/17 09:51:38;;;;;;;5.07;3.90;;;;;;;29.29;32.06;101508.53;4963396;28;20570;-70
2023/06/17 09:54:09;;;;;;;4.95;3.63;;;;;;;29.56;32.73;101511.22;4961429;28;20134;-70
2023/06/17 09:56:37;;;;;;;5.05;3.40;;;;;;;29.70;32.20;101506.19;4961749;28;20051;-74
2023/06/17 09:59:07;;;;;;;5.80;4.00;;;;;;;29.77;31.96;101511.41;4948320;28;20058;-69
2023/06/17 10:01:39;;;;;;;7.65;3.95;;;;;;;29.77;32.76;101509.53;4965132;28;20065;-71
2023/06/17 10:04:09;;;;;;;5.05;3.85;;;;;;;29.95;31.51;101505.59;4960272;28;20109;-71
2023/06/17 10:06:38;;;;;;;6.40;3.63;;;;;;;29.98;30.65;101508.84;4961699;28;20158;-71
2023/06/17 10:09:07;;;;;;;10.60;3.80;;;;;;;30.24;30.71;101504.41;4955698;28;20046;-71
2023/06/17 10:11:35;;;;;;;8.13;3.72;;;;;;;30.15;30.91;101504.09;4963765;28;20148;-71
2023/06/17 10:14:11;;;;;;;7.57;3.90;;;;;;;30.32;30.46;101498.53;4964299;28;20507;-70
2023/06/17 10:16:42;;;;;;;5.68;3.90;;;;;;;29.82;29.56;101502.53;4963462;28;20105;-70
2023/06/17 10:19:13;;;;;;;7.05;3.72;;;;;;;29.82;30.33;101492.53;4967127;28;20058;-70
2023/06/17 10:21:44;;;;;;;5.72;3.28;;;;;;;29.57;30.82;101502.03;4954802;28;20709;-70
2023/06/17 10:24:12;;;;;;;4.93;3.47;;;;;;;29.46;29.39;101500.31;4949535;28;20141;-70
2023/06/17 10:26:39;;;;;;;4.95;3.35;;;;;;;29.50;30.13;101489.78;4961387;28;20064;-70
2023/06/17 10:29:07;;;;;;;7.50;4.10;;;;;;;29.27;29.38;101490.97;4968112;28;20105;-70
2023/06/17 10:31:39;;;;;;;9.02;3.40;;;;;;;29.66;31.07;101493.44;4962071;28;20098;-70
2023/06/17 10:34:19;;;;;;;6.90;3.65;;;;;;;30.07;30.62;101489.19;4970886;28;20506;-70
2023/06/17 10:36:51;;;;;;;10.60;4.30;;;;;;;30.15;29.89;101485.97;4962615;28;20050;-69
2023/06/17 10:39:18;;;;;;;8.52;4.15;;;;;;;29.65;29.63;101484.50;4956403;28;20078;-71
2023/06/17 10:41:49;;;;;;;8.25;4.20;;;;;;;30.02;30.92;101486.44;4964865;28;20105;-69
2023/06/17 10:44:35;;;;;;;5.25;3.70;;;;;;;30.35;30.74;101487.19;4942801;28;20701;-70
2023/06/17 10:47:03;;;;;;;4.97;3.45;;;;;;;30.30;30.54;101477.09;4948212;28;20054;-70
2023/06/17 10:49:38;;;;;;;7.10;3.88;;;;;;;30.25;30.52;101474.41;4958966;28;20617;-71
2023/06/17 10:52:05;;;;;;;5.85;3.35;;;;;;;30.23;29.43;101473.84;4959705;28;20502;-70
2023/06/17 10:54:33;;;;;;;5.95;3.67;;;;;;;30.63;30.15;101475.13;4961236;28;20050;-69
2023/06/17 10:57:00;;;;;;;;;;;;;;;30.87;30.80;101471.94;4966670;28;20461;-71
2023/06/17 10:59:32;;;;;;;5.63;3.50;;;;;;;31.05;29.57;101460.66;4967619;28;19926;-71
2023/06/17 11:02:01;;;;;;;8.77;3.80;;;;;;;31.27;28.84;101476.66;4942671;28;20078;-71
2023/06/17 11:04:31;;;;;;;4.57;3.35;;;;;;;30.79;28.20;101464.34;4959498;28;20090;-70
2023/06/17 11:07:00;;;;;;;4.97;3.53;;;;;;;31.01;30.00;101464.13;4959615;28;20432;-74
2023/06/17 11:09:29;;;;;;;6.63;3.38;;;;;;;31.39;29.14;101451.97;4965497;28;20053;-70
2023/06/17 11:12:00;;;;;;;6.25;3.70;;;;;;;31.90;29.23;101456.56;4945004;28;20054;-70
2023/06/17 11:14:29;;;;;;;5.20;3.47;;;;;;;31.70;27.01;101455.50;4966258;28;20153;-72
2023/06/17 11:16:58;;;;;;;6.88;3.28;;;;;;;31.14;27.10;101450.88;4964892;28;20066;-72
2023/06/17 11:19:24;;;;;;;5.13;3.35;;;;;;;31.31;27.82;101447.13;4944775;28;20093;-70
2023/06/17 11:22:03;;;;;;;4.63;3.20;;;;;;;31.52;27.53;101446.06;4971318;28;20495;-70
2023/06/17 11:24:31;;;;;;;5.47;2.90;;;;;;;31.75;28.31;101438.41;4966800;28;20050;-71
2023/06/17 11:27:01;;;;;;;4.50;3.53;;;;;;;31.73;27.39;101440.59;4970792;28;20050;-72